Terminal Aerodrome Forecast
Issued by NWS Louisville, KY

Home | Current Version | Previous Version | Text Only | Print | Product List | Glossary On
Versions: 1 2 3 4 5 6 7 8 9 10 11 12 13
000
FTUS43 KLMK 152300
TAFBWG
TAF
KBWG 152320Z 1600/1624 22004KT P6SM BKN060
     FM160900 VRB03KT P6SM OVC018
     FM161500 33005KT P6SM BKN025
     FM162100 34005KT P6SM SCT035=

USA.gov is the U.S. government's official web portal to all federal, state and local government web resources and services.